createdAt,value
2017-09-02T00:00:51.505Z,13.60
2017-09-02T00:03:19.149Z,13.60
2017-09-02T00:05:46.727Z,13.60
2017-09-02T00:08:14.299Z,13.60
2017-09-02T00:10:41.901Z,13.60
2017-09-02T00:13:09.473Z,13.70
2017-09-02T00:15:37.041Z,13.70
2017-09-02T00:18:04.620Z,13.70
2017-09-02T00:20:32.186Z,13.70
2017-09-02T00:22:59.775Z,13.70
2017-09-02T00:25:27.359Z,13.70
2017-09-02T00:27:54.922Z,13.70
2017-09-02T00:30:22.491Z,13.70
2017-09-02T00:32:50.846Z,13.80
2017-09-02T00:35:18.433Z,13.80
2017-09-02T00:37:46.006Z,13.80
2017-09-02T00:40:13.600Z,13.80
2017-09-02T00:42:41.158Z,13.80
2017-09-02T00:45:09.614Z,13.80
2017-09-02T00:47:37.189Z,13.70
2017-09-02T00:50:04.760Z,13.80
2017-09-02T00:52:33.116Z,13.90
2017-09-02T00:55:00.733Z,13.90
2017-09-02T00:57:28.330Z,14.00
2017-09-02T00:59:55.897Z,13.90
2017-09-02T01:02:23.469Z,13.80
2017-09-02T01:04:51.049Z,13.80
2017-09-02T01:07:18.628Z,13.90
2017-09-02T01:09:46.225Z,13.90
2017-09-02T01:12:13.801Z,13.80
2017-09-02T01:14:41.369Z,13.80
2017-09-02T01:17:08.975Z,13.80
2017-09-02T01:19:36.549Z,13.80
2017-09-02T01:22:04.144Z,13.80
2017-09-02T01:24:31.709Z,13.80
2017-09-02T01:26:59.282Z,13.80
2017-09-02T01:29:27.634Z,13.90
2017-09-02T01:31:55.208Z,13.80
2017-09-02T01:34:22.792Z,13.90
2017-09-02T01:36:50.344Z,13.90
2017-09-02T01:39:17.993Z,13.80
2017-09-02T01:41:45.577Z,13.80
2017-09-02T01:44:13.151Z,13.80
2017-09-02T01:46:40.734Z,13.80
2017-09-02T01:49:08.306Z,13.80
2017-09-02T01:51:35.897Z,13.80
2017-09-02T01:54:03.482Z,13.80
2017-09-02T01:56:31.074Z,13.90
2017-09-02T01:58:58.654Z,13.80
2017-09-02T02:01:26.246Z,13.90
2017-09-02T02:03:53.826Z,13.90
2017-09-02T02:06:21.413Z,13.80
2017-09-02T02:08:48.975Z,13.90
2017-09-02T02:11:16.563Z,13.80
2017-09-02T02:13:44.134Z,13.70
2017-09-02T02:16:11.747Z,13.70
2017-09-02T02:18:39.338Z,13.60
2017-09-02T02:21:06.917Z,13.60
2017-09-02T02:23:34.483Z,13.80
2017-09-02T02:26:02.113Z,13.80
2017-09-02T02:28:29.714Z,13.80
2017-09-02T02:30:57.281Z,13.70
2017-09-02T02:33:24.851Z,13.60
2017-09-02T02:35:52.433Z,13.50
2017-09-02T02:38:20.015Z,13.40
2017-09-02T02:40:47.619Z,13.40
2017-09-02T02:43:15.203Z,13.40
2017-09-02T02:45:42.785Z,13.30
2017-09-02T02:48:10.398Z,13.30
2017-09-02T02:50:37.978Z,13.30
2017-09-02T02:53:06.321Z,13.30
2017-09-02T02:55:33.890Z,13.20
2017-09-02T02:58:01.474Z,13.30
2017-09-02T03:00:29.070Z,13.30
2017-09-02T03:02:56.646Z,13.30
2017-09-02T03:05:24.218Z,13.30
2017-09-02T03:07:51.839Z,13.30
2017-09-02T03:10:19.402Z,13.30
2017-09-02T03:12:47.001Z,13.20
2017-09-02T03:15:14.595Z,13.20
2017-09-02T03:17:42.176Z,13.20
2017-09-02T03:20:09.765Z,13.10
2017-09-02T03:22:37.446Z,13.10
2017-09-02T03:25:05.021Z,13.10
2017-09-02T03:27:32.619Z,13.00
2017-09-02T03:30:00.238Z,13.00
2017-09-02T03:32:27.839Z,13.00
2017-09-02T03:34:55.472Z,12.90
2017-09-02T03:37:23.035Z,13.00
2017-09-02T03:39:50.635Z,12.90
2017-09-02T03:42:18.254Z,13.00
2017-09-02T03:44:45.821Z,12.90
2017-09-02T03:47:13.414Z,12.90
2017-09-02T03:49:41.002Z,12.90
2017-09-02T03:52:08.569Z,12.80
2017-09-02T03:54:36.154Z,12.80
2017-09-02T03:57:03.721Z,12.90
2017-09-02T03:59:31.358Z,13.00
2017-09-02T04:01:58.995Z,12.90
2017-09-02T04:04:26.602Z,13.00
2017-09-02T04:06:54.188Z,13.00
2017-09-02T04:09:21.757Z,13.00
2017-09-02T04:11:50.110Z,13.00
2017-09-02T04:14:17.758Z,13.00
2017-09-02T04:16:45.354Z,13.00
2017-09-02T04:19:13.678Z,13.10
2017-09-02T04:21:41.278Z,13.10
2017-09-02T04:24:08.846Z,13.10
2017-09-02T04:26:36.411Z,13.10
2017-09-02T04:29:04.018Z,13.10
2017-09-02T04:31:31.614Z,13.20
2017-09-02T04:33:59.194Z,13.10
2017-09-02T04:36:26.766Z,13.20
2017-09-02T04:38:55.133Z,13.20
2017-09-02T04:41:22.714Z,13.20
2017-09-02T04:43:50.313Z,13.20
2017-09-02T04:46:17.912Z,13.20
2017-09-02T04:48:45.485Z,13.20
2017-09-02T04:51:13.102Z,13.20
2017-09-02T04:53:40.688Z,13.20
2017-09-02T04:56:08.313Z,13.20
2017-09-02T04:58:35.872Z,13.20
2017-09-02T05:01:03.457Z,13.20
2017-09-02T05:03:31.083Z,13.20
2017-09-02T05:05:58.643Z,13.20
2017-09-02T05:08:26.238Z,13.20
2017-09-02T05:10:53.857Z,13.20
2017-09-02T05:13:21.453Z,13.20
2017-09-02T05:15:49.024Z,13.20
2017-09-02T05:18:16.661Z,13.20
2017-09-02T05:20:44.254Z,13.30
2017-09-02T05:23:11.823Z,13.30
2017-09-02T05:25:39.486Z,13.30
2017-09-02T05:28:07.070Z,13.40
2017-09-02T05:30:34.655Z,13.40
2017-09-02T05:33:02.273Z,13.40
2017-09-02T05:35:29.830Z,13.50
2017-09-02T05:37:57.561Z,13.50
2017-09-02T05:40:25.153Z,13.50
2017-09-02T05:42:52.727Z,13.60
2017-09-02T05:45:20.336Z,13.60
2017-09-02T05:47:47.911Z,13.70
2017-09-02T05:50:15.505Z,13.70
2017-09-02T05:52:43.088Z,13.80
2017-09-02T05:55:10.659Z,13.80
2017-09-02T05:57:38.246Z,13.80
2017-09-02T06:00:05.838Z,13.90
2017-09-02T06:02:33.402Z,13.90
2017-09-02T06:05:00.971Z,14.00
2017-09-02T06:07:28.557Z,14.10
2017-09-02T06:09:56.135Z,14.20
2017-09-02T06:12:23.707Z,14.30
2017-09-02T06:14:51.278Z,14.30
2017-09-02T06:17:18.853Z,14.40
2017-09-02T06:19:47.222Z,14.50
2017-09-02T06:22:14.815Z,14.50
2017-09-02T06:24:42.373Z,14.60
2017-09-02T06:27:09.975Z,14.70
2017-09-02T06:29:37.543Z,14.80
2017-09-02T06:32:05.150Z,14.90
2017-09-02T06:34:32.744Z,15.00
2017-09-02T06:37:01.079Z,15.20
2017-09-02T06:39:28.675Z,15.10
2017-09-02T06:41:56.375Z,15.30
2017-09-02T06:44:23.995Z,15.40
2017-09-02T06:46:51.576Z,15.60
2017-09-02T06:49:19.918Z,15.90
2017-09-02T06:51:47.506Z,15.90
2017-09-02T06:54:15.879Z,16.50
2017-09-02T06:56:43.546Z,16.50
2017-09-02T06:59:11.486Z,16.80
2017-09-02T07:01:39.054Z,17.20
2017-09-02T07:04:06.664Z,17.40
2017-09-02T07:06:34.266Z,17.70
2017-09-02T07:09:01.837Z,17.90
2017-09-02T07:11:29.458Z,17.90
2017-09-02T07:13:57.025Z,18.00
2017-09-02T07:16:24.629Z,18.00
2017-09-02T07:18:52.198Z,17.80
2017-09-02T07:21:19.899Z,17.70
2017-09-02T07:23:47.625Z,17.60
2017-09-02T07:26:15.193Z,17.50
2017-09-02T07:28:42.794Z,17.50
2017-09-02T07:31:10.347Z,17.50
2017-09-02T07:33:37.937Z,17.40
2017-09-02T07:36:05.510Z,17.60
2017-09-02T07:38:33.102Z,17.60
2017-09-02T07:41:00.682Z,17.80
2017-09-02T07:43:28.258Z,18.00
2017-09-02T07:45:55.846Z,18.10
2017-09-02T07:48:23.453Z,18.30
2017-09-02T07:50:51.053Z,18.60
2017-09-02T07:53:18.638Z,19.20
2017-09-02T07:55:46.232Z,19.40
2017-09-02T07:58:14.556Z,20.10
2017-09-02T08:00:42.138Z,20.10
2017-09-02T08:03:09.706Z,20.50
2017-09-02T08:05:37.287Z,20.60
2017-09-02T08:08:04.868Z,20.60
2017-09-02T08:10:33.212Z,20.20
2017-09-02T08:13:00.771Z,20.20
2017-09-02T08:15:28.351Z,20.00
2017-09-02T08:17:55.951Z,19.90
2017-09-02T08:20:23.533Z,19.40
2017-09-02T08:22:51.178Z,19.30
2017-09-02T08:25:18.776Z,18.90
2017-09-02T08:27:46.402Z,18.80
2017-09-02T08:30:13.973Z,18.70
2017-09-02T08:32:41.575Z,18.50
2017-09-02T08:35:09.157Z,18.30
2017-09-02T08:37:36.746Z,18.40
2017-09-02T08:40:04.327Z,18.50
2017-09-02T08:42:31.906Z,18.60
2017-09-02T08:44:59.528Z,18.70
2017-09-02T08:47:27.262Z,18.90
2017-09-02T08:49:55.595Z,19.00
2017-09-02T08:52:23.182Z,19.00
2017-09-02T08:54:50.826Z,19.10
2017-09-02T08:57:18.497Z,19.30
2017-09-02T08:59:46.126Z,19.30
2017-09-02T09:02:13.707Z,19.40
2017-09-02T09:04:41.630Z,19.40
2017-09-02T09:07:09.325Z,19.40
2017-09-02T09:09:36.998Z,19.70
2017-09-02T09:12:04.901Z,19.90
2017-09-02T09:14:32.588Z,20.20
2017-09-02T09:17:00.210Z,20.70
2017-09-02T09:19:27.790Z,21.30
2017-09-02T09:21:55.546Z,22.10
2017-09-02T09:24:23.124Z,22.90
2017-09-02T09:26:51.478Z,24.10
2017-09-02T09:29:19.099Z,24.00
2017-09-02T09:31:47.301Z,24.20
2017-09-02T09:34:14.879Z,24.50
2017-09-02T09:36:42.463Z,24.20
2017-09-02T09:39:13.205Z,23.90
2017-09-02T09:41:40.789Z,23.60
2017-09-02T09:44:08.406Z,23.00
2017-09-02T09:46:35.998Z,22.60
2017-09-02T09:49:03.574Z,22.60
2017-09-02T09:51:31.170Z,22.70
2017-09-02T09:53:58.758Z,23.00
2017-09-02T09:56:27.099Z,23.10
2017-09-02T09:58:54.681Z,23.00
2017-09-02T10:01:22.281Z,22.90
2017-09-02T10:03:49.891Z,23.60
2017-09-02T10:06:17.477Z,23.70
2017-09-02T10:08:45.072Z,23.60
2017-09-02T10:11:12.652Z,25.00
2017-09-02T10:13:40.234Z,25.90
2017-09-02T10:16:07.817Z,25.30
2017-09-02T10:18:35.404Z,24.60
2017-09-02T10:21:03.027Z,24.50
2017-09-02T10:23:30.752Z,24.90
2017-09-02T10:25:58.319Z,25.40
2017-09-02T10:28:26.001Z,25.10
2017-09-02T10:30:53.629Z,26.20
2017-09-02T10:33:21.223Z,27.40
2017-09-02T10:35:48.806Z,28.40
2017-09-02T10:38:16.391Z,29.20
2017-09-02T10:40:44.143Z,29.10
2017-09-02T10:43:11.963Z,29.80
2017-09-02T10:45:39.561Z,29.70
2017-09-02T10:48:07.130Z,29.40
2017-09-02T10:50:34.751Z,29.40
2017-09-02T10:53:02.642Z,29.40
2017-09-02T10:55:30.276Z,29.90
2017-09-02T10:57:57.852Z,29.80
2017-09-02T11:00:25.477Z,29.80
2017-09-02T11:02:53.138Z,30.20
2017-09-02T11:05:20.711Z,30.40
2017-09-02T11:07:48.319Z,31.00
2017-09-02T11:10:15.930Z,29.90
2017-09-02T11:12:43.586Z,30.00
2017-09-02T11:15:11.167Z,30.50
2017-09-02T11:17:38.774Z,30.80
2017-09-02T11:20:06.366Z,31.00
2017-09-02T11:22:33.926Z,30.80
2017-09-02T11:25:02.630Z,30.30
2017-09-02T11:27:30.175Z,30.10
2017-09-02T11:29:57.750Z,29.20
2017-09-02T11:32:25.324Z,28.20
2017-09-02T11:34:52.893Z,26.90
2017-09-02T11:37:20.498Z,25.20
2017-09-02T11:39:48.077Z,23.10
2017-09-02T11:42:15.662Z,21.10
2017-09-02T11:44:43.395Z,18.70
2017-09-02T11:47:11.732Z,16.90
2017-09-02T11:49:39.331Z,16.90
2017-09-02T11:52:06.943Z,16.70
2017-09-02T11:54:34.535Z,16.60
2017-09-02T11:57:02.125Z,16.60
2017-09-02T11:59:29.747Z,16.60
2017-09-02T12:01:57.315Z,16.70
2017-09-02T12:04:24.905Z,16.70
2017-09-02T12:06:52.514Z,16.70
2017-09-02T12:09:20.077Z,16.70
2017-09-02T12:11:47.661Z,16.80
2017-09-02T12:14:15.224Z,16.80
2017-09-02T12:16:42.798Z,17.00
2017-09-02T12:19:10.373Z,17.10
2017-09-02T12:21:37.991Z,17.20
2017-09-02T12:24:05.550Z,17.30
2017-09-02T12:26:33.138Z,17.50
2017-09-02T12:29:01.467Z,17.90
2017-09-02T12:31:29.054Z,17.80
2017-09-02T12:33:56.623Z,18.00
2017-09-02T12:36:24.211Z,18.20
2017-09-02T12:38:51.792Z,18.50
2017-09-02T12:41:19.346Z,18.70
2017-09-02T12:43:46.934Z,18.90
2017-09-02T12:46:14.513Z,19.20
2017-09-02T12:48:42.094Z,19.40
2017-09-02T12:51:09.679Z,19.70
2017-09-02T12:53:37.232Z,19.90
2017-09-02T12:56:05.596Z,20.40
2017-09-02T12:58:33.153Z,20.40
2017-09-02T13:01:00.749Z,20.50
2017-09-02T13:03:28.334Z,20.70
2017-09-02T13:05:55.873Z,20.80
2017-09-02T13:08:23.479Z,20.90
2017-09-02T13:10:51.043Z,21.00
2017-09-02T13:13:18.599Z,21.00
2017-09-02T13:15:46.155Z,21.10
2017-09-02T13:18:13.673Z,20.90
2017-09-02T13:20:41.242Z,20.90
2017-09-02T13:23:08.833Z,20.80
2017-09-02T13:25:36.408Z,20.80
2017-09-02T13:28:04.031Z,20.80
2017-09-02T13:30:31.628Z,21.00
2017-09-02T13:32:59.197Z,21.10
2017-09-02T13:35:26.782Z,21.40
2017-09-02T13:37:55.110Z,21.30
2017-09-02T13:40:22.680Z,21.30
2017-09-02T13:42:50.246Z,21.40
2017-09-02T13:45:17.914Z,21.50
2017-09-02T13:47:45.501Z,21.60
2017-09-02T13:50:13.074Z,21.70
2017-09-02T13:52:40.670Z,22.10
2017-09-02T13:55:08.222Z,22.40
2017-09-02T13:57:35.805Z,22.80
2017-09-02T14:00:03.405Z,23.00
2017-09-02T14:02:31.014Z,23.30
2017-09-02T14:04:58.589Z,23.50
2017-09-02T14:07:26.199Z,23.40
2017-09-02T14:09:53.759Z,23.20
2017-09-02T14:12:21.367Z,22.80
2017-09-02T14:14:48.941Z,22.40
2017-09-02T14:17:16.547Z,22.30
2017-09-02T14:19:44.103Z,22.20
2017-09-02T14:22:11.680Z,22.00
2017-09-02T14:24:39.274Z,22.10
2017-09-02T14:27:06.854Z,22.10
2017-09-02T14:29:34.449Z,21.70
2017-09-02T14:32:02.005Z,21.40
2017-09-02T14:34:29.599Z,21.10
2017-09-02T14:36:57.177Z,21.00
2017-09-02T14:39:24.833Z,20.90
2017-09-02T14:41:52.437Z,20.90
2017-09-02T14:44:19.997Z,20.80
2017-09-02T14:46:47.587Z,20.80
2017-09-02T14:49:15.146Z,20.90
2017-09-02T14:51:42.702Z,20.70
2017-09-02T14:54:11.050Z,20.40
2017-09-02T14:56:38.682Z,20.40
2017-09-02T14:59:06.249Z,20.30
2017-09-02T15:01:33.828Z,20.10
2017-09-02T15:04:01.405Z,20.00
2017-09-02T15:06:28.950Z,20.00
2017-09-02T15:08:56.541Z,19.80
2017-09-02T15:11:24.100Z,19.80
2017-09-02T15:13:51.658Z,19.80
2017-09-02T15:16:19.242Z,19.70
2017-09-02T15:18:46.818Z,19.50
2017-09-02T15:21:14.390Z,19.40
2017-09-02T15:23:41.947Z,19.30
2017-09-02T15:26:09.548Z,19.20
2017-09-02T15:28:37.088Z,19.10
2017-09-02T15:31:04.674Z,19.10
2017-09-02T15:33:32.245Z,19.00
2017-09-02T15:35:59.805Z,19.00
2017-09-02T15:38:27.421Z,19.10
2017-09-02T15:40:55.001Z,19.00
2017-09-02T15:43:22.568Z,19.00
2017-09-02T15:45:50.147Z,19.00
2017-09-02T15:48:18.470Z,18.80
2017-09-02T15:50:46.085Z,18.80
2017-09-02T15:53:13.698Z,18.80
2017-09-02T15:55:41.281Z,18.70
2017-09-02T15:58:08.849Z,18.60
2017-09-02T16:00:36.406Z,18.60
2017-09-02T16:03:05.025Z,18.70
2017-09-02T16:05:33.370Z,18.70
2017-09-02T16:08:01.116Z,18.60
2017-09-02T16:10:28.686Z,18.50
2017-09-02T16:12:56.269Z,18.40
2017-09-02T16:15:23.911Z,18.40
2017-09-02T16:17:51.546Z,18.30
2017-09-02T16:20:19.137Z,18.30
2017-09-02T16:22:46.717Z,18.30
2017-09-02T16:25:14.351Z,18.30
2017-09-02T16:27:41.926Z,18.30
2017-09-02T16:30:09.500Z,18.30
2017-09-02T16:32:37.097Z,18.30
2017-09-02T16:35:04.658Z,18.20
2017-09-02T16:37:32.285Z,18.30
2017-09-02T16:39:59.874Z,18.20
2017-09-02T16:42:27.449Z,18.00
2017-09-02T16:44:55.028Z,17.80
2017-09-02T16:47:22.607Z,17.60
2017-09-02T16:49:50.437Z,17.50
2017-09-02T16:52:18.002Z,17.30
2017-09-02T16:54:45.566Z,17.30
2017-09-02T16:57:13.141Z,17.20
2017-09-02T16:59:40.709Z,17.00
2017-09-02T17:02:08.295Z,16.90
2017-09-02T17:04:35.882Z,16.80
2017-09-02T17:07:03.459Z,16.70
2017-09-02T17:09:31.034Z,16.60
2017-09-02T17:11:58.605Z,16.50
2017-09-02T17:14:26.166Z,16.40
2017-09-02T17:16:53.754Z,16.50
2017-09-02T17:19:21.330Z,16.60
2017-09-02T17:21:48.911Z,16.40
2017-09-02T17:24:16.465Z,16.40
2017-09-02T17:26:44.057Z,16.30
2017-09-02T17:29:11.656Z,16.20
2017-09-02T17:31:39.252Z,16.20
2017-09-02T17:34:07.601Z,16.10
2017-09-02T17:36:35.228Z,16.10
2017-09-02T17:39:02.807Z,16.00
2017-09-02T17:41:30.391Z,15.90
2017-09-02T17:43:58.116Z,15.70
2017-09-02T17:46:25.710Z,15.60
2017-09-02T17:48:53.278Z,15.50
2017-09-02T17:51:20.870Z,15.40
2017-09-02T17:53:48.422Z,15.30
2017-09-02T17:56:15.979Z,15.20
2017-09-02T17:58:43.574Z,15.10
2017-09-02T18:01:11.195Z,15.10
2017-09-02T18:03:38.777Z,15.00
2017-09-02T18:06:06.353Z,14.90
2017-09-02T18:08:33.966Z,14.80
2017-09-02T18:11:01.563Z,14.70
2017-09-02T18:13:29.145Z,14.70
2017-09-02T18:15:56.734Z,14.70
2017-09-02T18:18:24.341Z,14.60
2017-09-02T18:20:51.907Z,14.60
2017-09-02T18:23:19.477Z,14.40
2017-09-02T18:25:47.059Z,14.40
2017-09-02T18:28:15.379Z,14.30
2017-09-02T18:30:42.969Z,14.30
2017-09-02T18:33:10.545Z,14.30
2017-09-02T18:35:38.152Z,14.20
2017-09-02T18:38:05.695Z,14.20
2017-09-02T18:40:33.259Z,14.20
2017-09-02T18:43:00.834Z,14.10
2017-09-02T18:45:28.399Z,14.00
2017-09-02T18:47:56.328Z,13.90
2017-09-02T18:50:23.933Z,14.00
2017-09-02T18:52:51.521Z,14.00
2017-09-02T18:55:19.100Z,14.00
2017-09-02T18:57:46.673Z,14.10
2017-09-02T19:00:14.261Z,14.00
2017-09-02T19:02:41.830Z,14.00
2017-09-02T19:05:09.423Z,13.90
2017-09-02T19:07:37.023Z,13.90
2017-09-02T19:10:04.626Z,13.90
2017-09-02T19:12:32.258Z,13.90
2017-09-02T19:14:59.905Z,13.90
2017-09-02T19:17:28.237Z,13.90
2017-09-02T19:19:55.803Z,13.80
2017-09-02T19:22:23.396Z,13.80
2017-09-02T19:24:51.006Z,13.90
2017-09-02T19:27:19.415Z,13.90
2017-09-02T19:29:47.000Z,13.90
2017-09-02T19:32:14.582Z,13.90
2017-09-02T19:34:42.165Z,13.80
2017-09-02T19:37:09.730Z,13.70
2017-09-02T19:39:37.311Z,13.60
2017-09-02T19:42:04.930Z,13.60
2017-09-02T19:44:32.541Z,13.50
2017-09-02T19:47:00.130Z,13.40
2017-09-02T19:49:27.710Z,13.40
2017-09-02T19:51:55.345Z,13.30
2017-09-02T19:54:22.928Z,13.20
2017-09-02T19:56:50.501Z,13.30
2017-09-02T19:59:18.072Z,13.30
2017-09-02T20:01:45.650Z,13.20
2017-09-02T20:04:13.253Z,13.20
2017-09-02T20:06:40.925Z,13.10
2017-09-02T20:09:08.533Z,13.10
2017-09-02T20:11:36.109Z,13.00
2017-09-02T20:14:03.699Z,12.90
2017-09-02T20:16:31.269Z,12.80
2017-09-02T20:18:58.849Z,12.70
2017-09-02T20:21:26.548Z,12.60
2017-09-02T20:23:54.171Z,12.60
2017-09-02T20:26:21.779Z,12.50
2017-09-02T20:28:49.427Z,12.50
2017-09-02T20:31:17.002Z,12.40
2017-09-02T20:33:44.615Z,12.40
2017-09-02T20:36:12.180Z,12.50
2017-09-02T20:38:39.787Z,12.50
2017-09-02T20:41:07.405Z,12.40
2017-09-02T20:43:34.978Z,12.40
2017-09-02T20:46:02.546Z,12.30
2017-09-02T20:48:30.201Z,12.10
2017-09-02T20:50:57.759Z,12.00
2017-09-02T20:53:25.355Z,12.00
2017-09-02T20:55:52.986Z,11.90
2017-09-02T20:58:20.534Z,11.90
2017-09-02T21:00:48.177Z,11.90
2017-09-02T21:03:15.772Z,11.90
2017-09-02T21:05:43.539Z,11.90
2017-09-02T21:08:11.114Z,11.90
2017-09-02T21:10:38.722Z,11.90
2017-09-02T21:13:06.405Z,11.90
2017-09-02T21:15:33.983Z,11.90
2017-09-02T21:18:01.578Z,11.90
2017-09-02T21:20:30.137Z,11.90
2017-09-02T21:22:57.715Z,11.90
2017-09-02T21:25:25.283Z,11.80
2017-09-02T21:27:53.193Z,11.80
2017-09-02T21:30:20.787Z,11.80
2017-09-02T21:32:49.146Z,11.80
2017-09-02T21:35:16.709Z,11.80
2017-09-02T21:37:45.741Z,11.80
2017-09-02T21:40:13.346Z,11.70
2017-09-02T21:42:40.951Z,11.70
2017-09-02T21:45:08.523Z,11.70
2017-09-02T21:47:36.135Z,11.70
2017-09-02T21:50:03.718Z,11.60
2017-09-02T21:52:31.306Z,11.60
2017-09-02T21:54:58.923Z,11.60
2017-09-02T21:57:26.470Z,11.60
2017-09-02T21:59:54.060Z,11.60
2017-09-02T22:02:21.635Z,11.60
2017-09-02T22:04:49.313Z,11.70
2017-09-02T22:07:16.865Z,11.70
2017-09-02T22:09:44.482Z,11.70
2017-09-02T22:12:12.051Z,11.70
2017-09-02T22:14:39.651Z,11.60
2017-09-02T22:17:07.225Z,11.60
2017-09-02T22:19:34.789Z,11.50
2017-09-02T22:22:02.393Z,11.60
2017-09-02T22:24:29.945Z,11.60
2017-09-02T22:26:57.505Z,11.60
2017-09-02T22:29:25.097Z,11.60
2017-09-02T22:31:52.660Z,11.60
2017-09-02T22:34:20.254Z,11.50
2017-09-02T22:36:47.844Z,11.50
2017-09-02T22:39:15.418Z,11.50
2017-09-02T22:41:43.009Z,11.50
2017-09-02T22:44:10.583Z,11.50
2017-09-02T22:46:38.294Z,11.40
2017-09-02T22:49:05.887Z,11.40
2017-09-02T22:51:33.486Z,11.40
2017-09-02T22:54:01.071Z,11.40
2017-09-02T22:56:28.622Z,11.30
2017-09-02T22:58:56.217Z,11.30
2017-09-02T23:01:23.814Z,11.30
2017-09-02T23:03:51.402Z,11.40
2017-09-02T23:06:19.057Z,11.30
2017-09-02T23:08:46.677Z,11.30
2017-09-02T23:11:14.257Z,11.40
2017-09-02T23:13:41.818Z,11.40
2017-09-02T23:16:09.425Z,11.40
2017-09-02T23:18:36.993Z,11.40
2017-09-02T23:21:04.673Z,11.40
2017-09-02T23:23:32.253Z,11.30
2017-09-02T23:26:00.626Z,11.40
2017-09-02T23:28:28.217Z,11.30
2017-09-02T23:30:55.792Z,11.30
2017-09-02T23:33:23.416Z,11.30
2017-09-02T23:35:50.976Z,11.30
2017-09-02T23:38:18.597Z,11.30
2017-09-02T23:40:46.166Z,11.20
2017-09-02T23:43:13.752Z,11.20
2017-09-02T23:45:41.334Z,11.10
2017-09-02T23:48:08.922Z,11.10
2017-09-02T23:50:36.510Z,11.10
2017-09-02T23:53:04.099Z,11.00
2017-09-02T23:55:31.682Z,11.00
2017-09-02T23:57:59.274Z,11.00
